Time;durP1;ratioP1;P1;durP2;ratioP2;P2;SDS_P1;SDS_P2;PMS_P1;PMS_P2;Temp;Humidity;BMP_temperature;BMP_pressure;BME280_temperature;BME280_humidity;BME280_pressure;Samples;Min_cycle;Max_cycle;Signal;HPM_P1;HPM_P2
2022/02/26 00:02:10;;;;;;;19.48;5.20;;;;;;;;;;5094099;28;20200;-68
2022/02/26 00:04:37;;;;;;;18.95;4.72;;;;;;;;;;5094111;28;20212;-67
2022/02/26 00:07:05;;;;;;;21.65;5.15;;;;;;;;;;5094506;28;20252;-68
2022/02/26 00:09:32;;;;;;;16.35;6.22;;;;;;;;;;5094135;28;20213;-67
2022/02/26 00:11:59;;;;;;;43.50;4.68;;;;;;;;;;5094131;28;20317;-68
2022/02/26 00:14:26;;;;;;;13.75;4.07;;;;;;;;;;5093680;28;20656;-69
2022/02/26 00:16:53;;;;;;;21.52;6.63;;;;;;;;;;5093621;28;20720;-68
2022/02/26 00:19:22;;;;;;;15.85;4.30;;;;;;;;;;5093868;28;20206;-68
2022/02/26 00:21:49;;;;;;;21.75;4.75;;;;;;;;;;5094520;28;20190;-67
2022/02/26 00:24:17;;;;;;;15.82;5.20;;;;;;;;;;5093858;28;20619;-68
2022/02/26 00:26:45;;;;;;;18.67;4.72;;;;;;;;;;5093830;28;20277;-67
2022/02/26 00:29:12;;;;;;;10.23;4.57;;;;;;;;;;5093844;28;20558;-68
2022/02/26 00:31:39;;;;;;;22.40;6.40;;;;;;;;;;5093736;28;20195;-68
2022/02/26 00:34:07;;;;;;;13.60;4.80;;;;;;;;;;5093425;28;20226;-68
2022/02/26 00:36:35;;;;;;;28.92;6.88;;;;;;;;;;5093428;28;20272;-68
2022/02/26 00:39:03;;;;;;;18.38;3.80;;;;;;;;;;5093359;28;20197;-68
2022/02/26 00:41:30;;;;;;;20.35;4.88;;;;;;;;;;5094358;28;20578;-68
2022/02/26 00:43:57;;;;;;;18.58;4.28;;;;;;;;;;5093347;28;20283;-68
2022/02/26 00:46:24;;;;;;;19.27;5.78;;;;;;;;;;5093583;28;20289;-67
2022/02/26 00:51:38;;;;;;;20.63;5.22;;;;;;;;;;5093649;28;20173;-68
2022/02/26 00:54:05;;;;;;;18.58;4.45;;;;;;;;;;5093625;28;20551;-68
2022/02/26 00:56:32;;;;;;;18.20;4.90;;;;;;;;;;5093662;28;20197;-68
2022/02/26 00:58:59;;;;;;;18.42;4.88;;;;;;;;;;5093754;28;20718;-67
2022/02/26 01:01:27;;;;;;;12.10;4.45;;;;;;;;;;5094753;28;20198;-67
2022/02/26 01:03:54;;;;;;;13.13;5.20;;;;;;;;;;5097850;28;20252;-67
2022/02/26 01:06:21;;;;;;;19.77;5.35;;;;;;;;;;5097177;28;20240;-67
2022/02/26 01:08:51;;;;;;;21.73;6.80;;;;;;;;;;5097971;28;20209;-67
2022/02/26 01:11:18;;;;;;;17.65;5.60;;;;;;;;;;5097521;28;20240;-68
2022/02/26 01:13:45;;;;;;;29.85;6.32;;;;;;;;;;5097393;28;20623;-67
2022/02/26 01:16:13;;;;;;;25.27;6.32;;;;;;;;;;5097320;28;20619;-67
2022/02/26 01:18:40;;;;;;;13.30;4.25;;;;;;;;;;5097035;28;20286;-68
2022/02/26 01:21:07;;;;;;;17.25;5.35;;;;;;;;;;5096802;28;20208;-68
2022/02/26 01:23:34;;;;;;;20.35;4.95;;;;;;;;;;5097099;28;20218;-68
2022/02/26 01:26:03;;;;;;;17.20;5.03;;;;;;;;;;5097078;28;20196;-68
2022/02/26 01:28:30;;;;;;;14.85;5.30;;;;;;;;;;5097597;28;20371;-67
2022/02/26 01:30:57;;;;;;;17.52;6.15;;;;;;;;;;5096603;28;20305;-68
2022/02/26 01:33:24;;;;;;;12.60;5.10;;;;;;;;;;5096995;28;20280;-67
2022/02/26 01:35:52;;;;;;;13.02;5.22;;;;;;;;;;5096859;28;20285;-67
2022/02/26 01:38:19;;;;;;;14.50;5.15;;;;;;;;;;5096578;28;20194;-67
2022/02/26 01:40:46;;;;;;;29.73;5.18;;;;;;;;;;5096592;28;20231;-67
2022/02/26 01:43:15;;;;;;;14.05;5.05;;;;;;;;;;5096473;28;20733;-68
2022/02/26 01:45:42;;;;;;;14.25;5.07;;;;;;;;;;5096834;28;20658;-67
2022/02/26 01:48:09;;;;;;;13.02;4.85;;;;;;;;;;5097114;28;20196;-68
2022/02/26 01:50:37;;;;;;;15.55;5.97;;;;;;;;;;5097331;28;20306;-67
2022/02/26 01:53:04;;;;;;;19.80;5.28;;;;;;;;;;5096312;28;20199;-67
2022/02/26 01:55:32;;;;;;;12.73;4.47;;;;;;;;;;5096578;28;20209;-67
2022/02/26 01:58:00;;;;;;;18.73;5.10;;;;;;;;;;5096167;28;20233;-67
2022/02/26 02:00:28;;;;;;;20.48;5.43;;;;;;;;;;5096414;28;20243;-67
2022/02/26 02:02:57;;;;;;;14.77;5.13;;;;;;;;;;5096407;28;20281;-67
2022/02/26 02:05:25;;;;;;;19.45;5.00;;;;;;;;;;5096308;28;20200;-68
2022/02/26 02:07:53;;;;;;;13.68;4.53;;;;;;;;;;5096442;28;20194;-68
2022/02/26 02:10:21;;;;;;;14.70;4.80;;;;;;;;;;5095999;28;20250;-67
2022/02/26 02:12:48;;;;;;;12.95;4.53;;;;;;;;;;5095299;28;20220;-67
2022/02/26 02:15:15;;;;;;;19.83;6.90;;;;;;;;;;5096401;28;20199;-68
2022/02/26 02:17:45;;;;;;;13.50;4.50;;;;;;;;;;5096011;28;20642;-67
2022/02/26 02:20:12;;;;;;;16.98;5.63;;;;;;;;;;5096071;28;20296;-68
2022/02/26 02:22:42;;;;;;;26.95;5.70;;;;;;;;;;5095712;28;20195;-68
2022/02/26 02:25:10;;;;;;;18.05;4.90;;;;;;;;;;5095941;28;20559;-68
2022/02/26 02:27:37;;;;;;;20.88;4.55;;;;;;;;;;5096171;28;20197;-68
2022/02/26 02:30:05;;;;;;;19.35;4.43;;;;;;;;;;5096150;28;20252;-67
2022/02/26 02:32:32;;;;;;;13.20;5.55;;;;;;;;;;5095565;28;20277;-67
2022/02/26 02:34:59;;;;;;;24.42;6.82;;;;;;;;;;5096029;28;20193;-66
2022/02/26 02:37:26;;;;;;;22.17;5.07;;;;;;;;;;5096097;28;20226;-67
2022/02/26 02:39:55;;;;;;;13.35;4.88;;;;;;;;;;5095713;28;20281;-67
2022/02/26 02:42:22;;;;;;;19.25;5.60;;;;;;;;;;5095693;28;20195;-68
2022/02/26 02:44:49;;;;;;;21.13;6.20;;;;;;;;;;5096128;28;20245;-68
2022/02/26 02:47:16;;;;;;;25.55;6.00;;;;;;;;;;5095605;28;20192;-67
2022/02/26 02:49:44;;;;;;;9.18;4.88;;;;;;;;;;5095150;28;20226;-67
2022/02/26 02:52:11;;;;;;;17.67;5.13;;;;;;;;;;5095492;28;20237;-70
2022/02/26 02:54:38;;;;;;;21.42;6.60;;;;;;;;;;5095608;28;20205;-68
2022/02/26 02:57:07;;;;;;;22.73;7.45;;;;;;;;;;5095366;28;20198;-68
2022/02/26 02:59:34;;;;;;;15.52;5.32;;;;;;;;;;5095019;28;20241;-68
2022/02/26 03:02:01;;;;;;;13.48;5.75;;;;;;;;;;5095553;28;20229;-68
2022/02/26 03:04:28;;;;;;;14.43;5.78;;;;;;;;;;5094925;28;20242;-68
2022/02/26 03:06:56;;;;;;;29.63;6.75;;;;;;;;;;5095198;28;20226;-68
2022/02/26 03:09:23;;;;;;;16.65;5.50;;;;;;;;;;5094837;28;20285;-68
2022/02/26 03:11:50;;;;;;;20.38;6.25;;;;;;;;;;5095011;28;20269;-68
2022/02/26 03:14:18;;;;;;;23.83;7.20;;;;;;;;;;5095679;28;20193;-68
2022/02/26 03:16:46;;;;;;;27.85;6.80;;;;;;;;;;5095044;28;20190;-68
2022/02/26 03:19:13;;;;;;;16.45;6.40;;;;;;;;;;5095026;28;20221;-67
2022/02/26 03:21:40;;;;;;;20.75;6.57;;;;;;;;;;5095130;28;20290;-68
2022/02/26 03:24:10;;;;;;;25.88;6.10;;;;;;;;;;5094829;28;20621;-68
2022/02/26 03:26:38;;;;;;;19.58;6.45;;;;;;;;;;5095121;28;20185;-68
2022/02/26 03:29:07;;;;;;;20.65;7.20;;;;;;;;;;5094427;28;20202;-69
2022/02/26 03:31:36;;;;;;;25.38;6.93;;;;;;;;;;5094365;28;20210;-68
2022/02/26 03:34:03;;;;;;;17.55;6.70;;;;;;;;;;5094680;28;20291;-68
2022/02/26 03:36:34;;;;;;;31.73;6.25;;;;;;;;;;5094880;28;20286;-68
2022/02/26 03:39:01;;;;;;;13.30;5.68;;;;;;;;;;5094571;28;20673;-68
2022/02/26 03:41:28;;;;;;;25.25;7.65;;;;;;;;;;5094613;28;20244;-68
2022/02/26 03:43:55;;;;;;;14.35;5.22;;;;;;;;;;5094167;28;20284;-68
2022/02/26 03:46:23;;;;;;;18.23;7.90;;;;;;;;;;5094153;28;20198;-68
2022/02/26 03:48:52;;;;;;;21.27;6.05;;;;;;;;;;5094945;28;20204;-68
2022/02/26 03:51:19;;;;;;;23.10;7.13;;;;;;;;;;5094651;28;20583;-67
2022/02/26 03:53:46;;;;;;;14.02;6.63;;;;;;;;;;5094587;28;20290;-68
2022/02/26 03:56:14;;;;;;;13.20;6.20;;;;;;;;;;5094960;28;20327;-68
2022/02/26 03:58:41;;;;;;;18.48;6.07;;;;;;;;;;5094601;28;20559;-68
2022/02/26 04:01:08;;;;;;;13.13;6.00;;;;;;;;;;5093921;28;20224;-68
2022/02/26 04:03:35;;;;;;;18.58;6.38;;;;;;;;;;5093902;28;20291;-68
2022/02/26 04:06:04;;;;;;;21.88;6.05;;;;;;;;;;5093830;28;20198;-68
2022/02/26 04:08:31;;;;;;;27.80;5.88;;;;;;;;;;5094127;28;20217;-67
2022/02/26 04:10:58;;;;;;;19.42;6.85;;;;;;;;;;5093801;28;20241;-67
2022/02/26 04:13:26;;;;;;;14.63;6.05;;;;;;;;;;5093770;28;20234;-68
2022/02/26 04:15:53;;;;;;;17.88;5.97;;;;;;;;;;5094027;28;20229;-68
2022/02/26 04:18:20;;;;;;;24.00;6.18;;;;;;;;;;5094278;28;20324;-68
2022/02/26 04:20:47;;;;;;;19.52;6.95;;;;;;;;;;5094523;28;20199;-68
2022/02/26 04:23:16;;;;;;;22.55;5.95;;;;;;;;;;5093790;28;20284;-69
2022/02/26 04:25:43;;;;;;;30.25;7.45;;;;;;;;;;5094053;28;20195;-68
2022/02/26 04:28:10;;;;;;;20.38;5.82;;;;;;;;;;5093848;28;20710;-68
2022/02/26 04:30:38;;;;;;;16.27;6.43;;;;;;;;;;5093371;28;20217;-67
2022/02/26 04:33:06;;;;;;;14.68;7.10;;;;;;;;;;5093790;28;20195;-67
2022/02/26 04:35:33;;;;;;;16.20;6.60;;;;;;;;;;5093406;28;20553;-67
2022/02/26 04:38:00;;;;;;;21.15;6.55;;;;;;;;;;5093279;28;20247;-66
2022/02/26 04:40:29;;;;;;;23.42;8.10;;;;;;;;;;5093806;28;20556;-67
2022/02/26 04:42:57;;;;;;;16.98;8.75;;;;;;;;;;5093874;28;20285;-68
2022/02/26 04:45:25;;;;;;;23.35;5.80;;;;;;;;;;5093619;28;20656;-67
2022/02/26 04:47:53;;;;;;;25.25;6.53;;;;;;;;;;5093610;28;20202;-67
2022/02/26 04:50:20;;;;;;;20.38;7.18;;;;;;;;;;5093534;28;20204;-67
2022/02/26 04:52:47;;;;;;;24.85;6.47;;;;;;;;;;5093278;28;20749;-67
2022/02/26 04:55:15;;;;;;;21.60;5.97;;;;;;;;;;5093773;28;20280;-68
2022/02/26 04:57:44;;;;;;;14.65;6.95;;;;;;;;;;5093258;28;20237;-67
2022/02/26 05:00:12;;;;;;;21.85;6.90;;;;;;;;;;5093222;28;20191;-68
2022/02/26 05:02:39;;;;;;;21.15;6.20;;;;;;;;;;5093462;28;20284;-67
2022/02/26 05:05:06;;;;;;;14.93;5.88;;;;;;;;;;5093175;28;20714;-68
2022/02/26 05:07:33;;;;;;;16.02;6.80;;;;;;;;;;5093464;28;20286;-67
2022/02/26 05:10:01;;;;;;;24.77;7.35;;;;;;;;;;5093393;28;20229;-67
2022/02/26 05:12:28;;;;;;;12.75;6.40;;;;;;;;;;5093388;28;20321;-67
2022/02/26 05:14:57;;;;;;;26.20;7.57;;;;;;;;;;5093700;28;20286;-67
2022/02/26 05:17:24;;;;;;;16.88;6.50;;;;;;;;;;5092822;28;20234;-66
2022/02/26 05:19:51;;;;;;;20.77;7.47;;;;;;;;;;5093038;28;20199;-66
2022/02/26 05:22:18;;;;;;;27.00;7.82;;;;;;;;;;5093337;28;20289;-67
2022/02/26 05:24:45;;;;;;;16.30;6.80;;;;;;;;;;5093316;28;20298;-66
2022/02/26 05:27:13;;;;;;;18.40;8.30;;;;;;;;;;5093318;28;20547;-67
2022/02/26 05:29:40;;;;;;;22.25;7.88;;;;;;;;;;5093208;28;20228;-66
2022/02/26 05:32:09;;;;;;;24.77;7.85;;;;;;;;;;5092787;28;20218;-66
2022/02/26 05:34:37;;;;;;;21.73;8.85;;;;;;;;;;5093470;28;20195;-66
2022/02/26 05:37:04;;;;;;;18.83;6.88;;;;;;;;;;5093699;28;20280;-66
2022/02/26 05:39:31;;;;;;;30.42;7.93;;;;;;;;;;5092839;28;20229;-66
2022/02/26 05:41:58;;;;;;;25.92;8.52;;;;;;;;;;5092803;28;20294;-66
2022/02/26 05:44:26;;;;;;;13.25;7.50;;;;;;;;;;5092758;28;20281;-65
2022/02/26 05:46:53;;;;;;;20.98;9.25;;;;;;;;;;5093265;28;20284;-67
2022/02/26 05:49:23;;;;;;;20.00;8.48;;;;;;;;;;5095647;28;20195;-66
2022/02/26 05:51:50;;;;;;;15.35;7.53;;;;;;;;;;5096970;28;20206;-66
2022/02/26 05:54:18;;;;;;;15.55;7.18;;;;;;;;;;5096268;28;20686;-67
2022/02/26 05:56:45;;;;;;;21.13;7.95;;;;;;;;;;5096879;28;20195;-66
2022/02/26 05:59:12;;;;;;;27.13;7.85;;;;;;;;;;5096356;28;20667;-66
2022/02/26 06:01:39;;;;;;;20.30;8.30;;;;;;;;;;5096076;28;20288;-66
2022/02/26 06:04:07;;;;;;;21.35;8.02;;;;;;;;;;5096346;28;20194;-67
2022/02/26 06:06:35;;;;;;;27.42;8.93;;;;;;;;;;5096383;28;20195;-67
2022/02/26 06:09:03;;;;;;;23.92;9.07;;;;;;;;;;5096595;28;20198;-67
2022/02/26 06:11:30;;;;;;;21.77;7.80;;;;;;;;;;5096198;28;20288;-66
2022/02/26 06:13:57;;;;;;;18.27;6.97;;;;;;;;;;5095936;28;20241;-67
2022/02/26 06:16:24;;;;;;;20.55;8.18;;;;;;;;;;5095891;28;20196;-66
2022/02/26 06:18:52;;;;;;;27.88;7.68;;;;;;;;;;5096019;28;20277;-66
2022/02/26 06:21:19;;;;;;;26.90;8.05;;;;;;;;;;5096528;28;20619;-67
2022/02/26 06:23:47;;;;;;;20.83;8.88;;;;;;;;;;5095776;28;20285;-66
2022/02/26 06:26:15;;;;;;;19.98;8.73;;;;;;;;;;5096043;28;20284;-67
2022/02/26 06:28:42;;;;;;;17.85;9.32;;;;;;;;;;5095629;28;20289;-67
2022/02/26 06:31:09;;;;;;;26.17;9.57;;;;;;;;;;5095825;28;20656;-67
2022/02/26 06:33:36;;;;;;;19.58;9.00;;;;;;;;;;5095914;28;20298;-67
2022/02/26 06:36:04;;;;;;;30.77;9.40;;;;;;;;;;5095481;28;20193;-67
2022/02/26 06:38:31;;;;;;;27.65;9.57;;;;;;;;;;5095815;28;20201;-66
2022/02/26 06:40:59;;;;;;;18.90;7.53;;;;;;;;;;5095893;28;20194;-67
2022/02/26 06:43:27;;;;;;;23.02;9.30;;;;;;;;;;5095343;28;20243;-66
2022/02/26 06:45:54;;;;;;;33.42;10.90;;;;;;;;;;5095597;28;20240;-66
2022/02/26 06:48:21;;;;;;;19.80;10.30;;;;;;;;;;5095140;28;20281;-66
2022/02/26 06:50:48;;;;;;;23.35;9.57;;;;;;;;;;5095763;28;20194;-66
2022/02/26 06:53:15;;;;;;;18.70;9.15;;;;;;;;;;5095081;28;20258;-67
2022/02/26 06:55:43;;;;;;;21.77;9.52;;;;;;;;;;5095066;28;20285;-66
2022/02/26 06:58:11;;;;;;;17.42;9.57;;;;;;;;;;5095388;28;20244;-67
2022/02/26 07:00:39;;;;;;;25.67;9.00;;;;;;;;;;5094839;28;20282;-67
2022/02/26 07:03:06;;;;;;;18.63;9.25;;;;;;;;;;5095272;28;20255;-66
2022/02/26 07:05:33;;;;;;;23.05;9.27;;;;;;;;;;5094944;28;20703;-66
2022/02/26 07:08:00;;;;;;;25.95;8.90;;;;;;;;;;5094826;28;20671;-67
2022/02/26 07:10:28;;;;;;;23.23;9.43;;;;;;;;;;5094811;28;20193;-67
2022/02/26 07:12:55;;;;;;;28.45;9.02;;;;;;;;;;5095056;28;20206;-67
2022/02/26 07:15:24;;;;;;;20.90;7.70;;;;;;;;;;5095328;28;20194;-67
2022/02/26 07:17:51;;;;;;;18.13;8.18;;;;;;;;;;5094731;28;20281;-67
2022/02/26 07:20:18;;;;;;;22.13;8.40;;;;;;;;;;5094939;28;20201;-66
2022/02/26 07:22:45;;;;;;;23.73;8.70;;;;;;;;;;5094577;28;20247;-67
2022/02/26 07:25:13;;;;;;;25.92;9.63;;;;;;;;;;5095674;28;20248;-67
2022/02/26 07:27:40;;;;;;;18.67;8.10;;;;;;;;;;5094513;28;20234;-67
2022/02/26 07:30:07;;;;;;;15.35;7.80;;;;;;;;;;5094795;28;20232;-67
2022/02/26 07:32:36;;;;;;;26.33;8.30;;;;;;;;;;5095054;28;20218;-67
2022/02/26 07:35:04;;;;;;;23.38;8.43;;;;;;;;;;5095137;28;20205;-67
2022/02/26 07:37:31;;;;;;;21.88;8.32;;;;;;;;;;5094601;28;20280;-67
2022/02/26 07:39:58;;;;;;;23.25;7.95;;;;;;;;;;5094740;28;20195;-66
2022/02/26 07:42:26;;;;;;;25.00;8.05;;;;;;;;;;5095036;28;20240;-67
2022/02/26 07:44:53;;;;;;;25.65;8.77;;;;;;;;;;5094210;28;20647;-67
2022/02/26 07:47:21;;;;;;;23.85;7.57;;;;;;;;;;5094720;28;20717;-67
2022/02/26 07:49:50;;;;;;;24.08;7.57;;;;;;;;;;5094422;28;20614;-67
2022/02/26 07:52:17;;;;;;;21.90;8.82;;;;;;;;;;5093982;28;20770;-67
2022/02/26 07:54:45;;;;;;;16.75;8.20;;;;;;;;;;5093981;28;20216;-67
2022/02/26 07:57:12;;;;;;;27.90;8.65;;;;;;;;;;5094197;28;20229;-67
2022/02/26 07:59:39;;;;;;;23.30;9.00;;;;;;;;;;5094272;28;20277;-66
2022/02/26 08:02:06;;;;;;;21.90;9.18;;;;;;;;;;5093897;28;20286;-66
2022/02/26 08:04:34;;;;;;;29.60;9.45;;;;;;;;;;5093863;28;20212;-66
2022/02/26 08:07:02;;;;;;;25.77;9.68;;;;;;;;;;5094123;28;20203;-66
2022/02/26 08:09:30;;;;;;;21.27;9.88;;;;;;;;;;5094113;28;20198;-66
2022/02/26 08:11:57;;;;;;;22.75;8.80;;;;;;;;;;5092955;28;20239;-67
2022/02/26 08:14:24;;;;;;;34.30;10.23;;;;;;;;;;5094037;28;20280;-67
2022/02/26 08:16:52;;;;;;;27.85;9.30;;;;;;;;;;5093119;28;20284;-67
2022/02/26 08:19:19;;;;;;;19.35;9.13;;;;;;;;;;5073402;28;20219;-66
2022/02/26 08:21:46;;;;;;;30.77;9.98;;;;;;;;;;5073303;28;20255;-67
2022/02/26 08:24:17;;;;;;;20.55;10.32;;;;;;;;;;5073373;28;20240;-67
2022/02/26 08:26:45;;;;;;;23.52;9.98;;;;;;;;;;5073274;28;20178;-68
2022/02/26 08:29:12;;;;;;;25.33;9.18;;;;;;;;;;5074031;28;20195;-67
2022/02/26 08:31:39;;;;;;;30.95;9.68;;;;;;;;;;5073689;28;20230;-67
2022/02/26 08:34:06;;;;;;;13.55;6.50;;;;;;;;;;5073590;28;20196;-68
2022/02/26 08:36:34;;;;;;;15.32;7.60;;;;;;;;;;5073501;28;20591;-66
2022/02/26 08:39:01;;;;;;;21.98;8.45;;;;;;;;;;5073245;28;20233;-67
2022/02/26 08:41:30;;;;;;;19.35;8.80;;;;;;;;;;5073069;28;20200;-67
2022/02/26 08:43:57;;;;;;;27.85;8.23;;;;;;;;;;5073105;28;20235;-68
2022/02/26 08:46:24;;;;;;;22.17;9.15;;;;;;;;;;5073759;28;20303;-68
2022/02/26 08:48:52;;;;;;;16.02;7.13;;;;;;;;;;5073362;28;20265;-67
2022/02/26 08:51:19;;;;;;;17.75;7.25;;;;;;;;;;5073748;28;20191;-67
2022/02/26 08:53:46;;;;;;;20.35;7.68;;;;;;;;;;5073371;28;20224;-67
2022/02/26 08:56:14;;;;;;;18.05;9.20;;;;;;;;;;5073562;28;20192;-67
2022/02/26 08:58:42;;;;;;;25.67;8.13;;;;;;;;;;5073031;28;20194;-67
2022/02/26 09:01:09;;;;;;;18.73;7.65;;;;;;;;;;5073520;28;20231;-66
2022/02/26 09:03:37;;;;;;;19.23;7.03;;;;;;;;;;5073015;28;20195;-67
2022/02/26 09:06:04;;;;;;;20.38;7.75;;;;;;;;;;5073442;28;20224;-66
2022/02/26 09:08:32;;;;;;;25.33;7.25;;;;;;;;;;5073175;28;20286;-67
2022/02/26 09:10:59;;;;;;;20.58;7.63;;;;;;;;;;5072604;28;20264;-66
2022/02/26 09:13:26;;;;;;;15.75;6.68;;;;;;;;;;5073615;28;20313;-66
2022/02/26 09:15:55;;;;;;;22.35;5.97;;;;;;;;;;5073167;28;20282;-66
2022/02/26 09:18:22;;;;;;;22.02;7.45;;;;;;;;;;5086775;28;20237;-68
2022/02/26 09:20:49;;;;;;;17.10;6.68;;;;;;;;;;5093159;28;20280;-67
2022/02/26 09:23:16;;;;;;;9.35;5.65;;;;;;;;;;5095864;28;20198;-66
2022/02/26 09:25:44;;;;;;;20.77;6.18;;;;;;;;;;5096836;28;20196;-66
2022/02/26 09:28:11;;;;;;;14.52;5.40;;;;;;;;;;5096820;28;20202;-67
2022/02/26 09:30:38;;;;;;;14.25;4.65;;;;;;;;;;5097029;28;20232;-68
2022/02/26 09:33:07;;;;;;;25.80;6.07;;;;;;;;;;5096602;28;20261;-66
2022/02/26 09:35:34;;;;;;;17.83;5.45;;;;;;;;;;5097030;28;20235;-66
2022/02/26 09:38:01;;;;;;;14.82;6.22;;;;;;;;;;5097080;28;20620;-67
2022/02/26 09:40:29;;;;;;;15.23;4.43;;;;;;;;;;5096927;28;20223;-66
2022/02/26 09:42:57;;;;;;;13.60;5.10;;;;;;;;;;5096642;28;20293;-67
2022/02/26 09:45:25;;;;;;;19.98;3.92;;;;;;;;;;5095703;28;20558;-66
2022/02/26 09:47:52;;;;;;;16.35;3.67;;;;;;;;;;5095789;28;20603;-67
2022/02/26 09:50:21;;;;;;;15.77;2.78;;;;;;;;;;5095621;28;20199;-68
2022/02/26 09:52:50;;;;;;;9.13;3.20;;;;;;;;;;5095634;28;20224;-66
2022/02/26 09:55:18;;;;;;;15.18;5.15;;;;;;;;;;5095157;28;20286;-67
2022/02/26 09:57:45;;;;;;;20.20;3.95;;;;;;;;;;5096110;28;20203;-67
2022/02/26 10:00:13;;;;;;;18.60;4.70;;;;;;;;;;5095640;28;20199;-68
2022/02/26 10:02:41;;;;;;;10.65;3.22;;;;;;;;;;5095953;28;20201;-68
2022/02/26 10:05:10;;;;;;;12.57;3.53;;;;;;;;;;5096106;28;20552;-67
2022/02/26 10:07:39;;;;;;;12.32;2.90;;;;;;;;;;5096600;28;20652;-67
2022/02/26 10:10:08;;;;;;;15.70;4.40;;;;;;;;;;5096280;28;20546;-67
2022/02/26 10:12:36;;;;;;;11.25;3.63;;;;;;;;;;5096826;28;20237;-67
2022/02/26 10:15:04;;;;;;;17.75;4.13;;;;;;;;;;5096159;28;20196;-66
2022/02/26 10:17:33;;;;;;;10.10;2.53;;;;;;;;;;5095632;28;20666;-67
2022/02/26 10:20:01;;;;;;;14.43;4.20;;;;;;;;;;5095929;28;20209;-67
2022/02/26 10:22:30;;;;;;;15.32;3.42;;;;;;;;;;5095483;28;20212;-67
2022/02/26 10:25:04;;;;;;;18.95;3.03;;;;;;;;;;5095500;28;20199;-67
2022/02/26 10:27:31;;;;;;;10.88;2.40;;;;;;;;;;5095999;28;20192;-67
2022/02/26 10:29:59;;;;;;;12.38;3.83;;;;;;;;;;5095960;28;20231;-67
2022/02/26 10:32:26;;;;;;;10.57;3.28;;;;;;;;;;5095881;28;20195;-67
2022/02/26 10:34:55;;;;;;;10.13;3.03;;;;;;;;;;5095034;28;20283;-67
2022/02/26 10:37:23;;;;;;;22.83;3.72;;;;;;;;;;5095561;28;20199;-67
2022/02/26 10:39:51;;;;;;;8.60;2.92;;;;;;;;;;5095247;28;20204;-68
2022/02/26 10:42:20;;;;;;;17.63;4.13;;;;;;;;;;5095224;28;20283;-68
2022/02/26 10:44:59;;;;;;;7.28;2.50;;;;;;;;;;5095178;28;20227;-67
2022/02/26 10:47:28;;;;;;;14.18;3.60;;;;;;;;;;5095194;28;20255;-67
2022/02/26 10:49:55;;;;;;;10.43;2.70;;;;;;;;;;5095555;28;20196;-67
2022/02/26 10:52:22;;;;;;;18.30;3.35;;;;;;;;;;5095025;28;20660;-67
2022/02/26 10:54:52;;;;;;;16.23;4.38;;;;;;;;;;5095014;28;20202;-67
2022/02/26 10:57:20;;;;;;;12.80;3.42;;;;;;;;;;5095390;28;20192;-67
2022/02/26 10:59:53;;;;;;;10.27;3.45;;;;;;;;;;5095189;28;20261;-67
2022/02/26 11:02:24;;;;;;;8.20;2.80;;;;;;;;;;5094878;28;20275;-67
2022/02/26 11:04:52;;;;;;;18.25;4.28;;;;;;;;;;5094453;28;20192;-67
2022/02/26 11:07:19;;;;;;;10.60;2.75;;;;;;;;;;5095236;28;20191;-67
2022/02/26 11:09:47;;;;;;;13.07;3.00;;;;;;;;;;5095117;28;20224;-66
2022/02/26 11:12:15;;;;;;;14.45;3.70;;;;;;;;;;5094867;28;20255;-66
2022/02/26 11:14:48;;;;;;;11.95;3.58;;;;;;;;;;5095026;28;20662;-67
2022/02/26 11:17:16;;;;;;;12.23;3.58;;;;;;;;;;5095195;28;20189;-66
2022/02/26 11:19:46;;;;;;;10.98;2.70;;;;;;;;;;5094587;28;20199;-66
2022/02/26 11:22:13;;;;;;;10.23;3.22;;;;;;;;;;5094556;28;20203;-66
2022/02/26 11:24:41;;;;;;;13.50;3.40;;;;;;;;;;5094465;28;20592;-67
2022/02/26 11:27:08;;;;;;;9.65;3.90;;;;;;;;;;5094713;28;20550;-66
2022/02/26 11:29:35;;;;;;;12.88;4.18;;;;;;;;;;5094848;28;20284;-66
2022/02/26 11:32:05;;;;;;;11.10;3.70;;;;;;;;;;5094493;28;20238;-67
2022/02/26 11:34:34;;;;;;;10.23;3.38;;;;;;;;;;5094679;28;20682;-66
2022/02/26 11:37:04;;;;;;;7.47;2.95;;;;;;;;;;5094712;28;20291;-67
2022/02/26 11:39:32;;;;;;;11.07;3.60;;;;;;;;;;5094629;28;20257;-66
2022/02/26 11:42:33;;;;;;;7.70;3.05;;;;;;;;;;5094634;28;20201;-67
2022/02/26 11:45:01;;;;;;;10.48;3.45;;;;;;;;;;5031982;28;20218;-66
2022/02/26 11:47:38;;;;;;;14.05;3.47;;;;;;;;;;5031957;28;20209;-66
2022/02/26 11:50:07;;;;;;;12.98;4.55;;;;;;;;;;5064247;28;20280;-66
2022/02/26 11:52:41;;;;;;;15.73;3.20;;;;;;;;;;5094570;28;20191;-66
2022/02/26 11:55:29;;;;;;;11.48;2.97;;;;;;;;;;5093930;28;20200;-66
2022/02/26 11:57:57;;;;;;;13.02;5.45;;;;;;;;;;5089475;28;20205;-66
2022/02/26 12:00:25;;;;;;;12.82;3.45;;;;;;;;;;5094494;28;20223;-66
2022/02/26 12:03:11;;;;;;;13.25;3.35;;;;;;;;;;5094126;28;20646;-66
2022/02/26 12:05:39;;;;;;;10.45;3.55;;;;;;;;;;5093745;28;20239;-66
2022/02/26 12:08:10;;;;;;;12.48;3.63;;;;;;;;;;5093712;28;20200;-66
2022/02/26 12:10:37;;;;;;;15.98;3.75;;;;;;;;;;5093745;28;20287;-66
2022/02/26 12:13:23;;;;;;;9.27;5.32;;;;;;;;;;5093811;28;20734;-66
2022/02/26 12:16:08;;;;;;;12.77;3.88;;;;;;;;;;5093898;28;20193;-66
2022/02/26 12:18:41;;;;;;;12.60;3.78;;;;;;;;;;5093770;28;20210;-66
2022/02/26 12:21:11;;;;;;;12.85;3.45;;;;;;;;;;5094230;28;20189;-66
2022/02/26 12:23:38;;;;;;;16.13;4.57;;;;;;;;;;5093474;28;20290;-66
2022/02/26 12:26:08;;;;;;;10.27;2.88;;;;;;;;;;5093915;28;20200;-67
2022/02/26 12:28:35;;;;;;;8.07;3.05;;;;;;;;;;5093803;28;20596;-66
2022/02/26 12:31:03;;;;;;;8.40;2.80;;;;;;;;;;5094295;28;20594;-66
2022/02/26 12:33:37;;;;;;;8.02;3.00;;;;;;;;;;5093342;28;20305;-66
2022/02/26 12:36:08;;;;;;;6.10;2.85;;;;;;;;;;5093645;28;20275;-66
2022/02/26 12:38:46;;;;;;;10.88;2.92;;;;;;;;;;5093981;28;20180;-66
2022/02/26 12:41:28;;;;;;;10.82;2.60;;;;;;;;;;5093620;28;20195;-66
2022/02/26 12:43:55;;;;;;;10.88;3.00;;;;;;;;;;5093790;28;20631;-66
2022/02/26 12:46:22;;;;;;;7.20;2.90;;;;;;;;;;5093299;28;20651;-66
2022/02/26 12:48:49;;;;;;;11.23;3.10;;;;;;;;;;5093284;28;20668;-67
2022/02/26 12:51:17;;;;;;;15.65;3.30;;;;;;;;;;5093363;28;20675;-66
2022/02/26 12:53:46;;;;;;;10.23;4.18;;;;;;;;;;5093610;28;20224;-66
2022/02/26 12:56:13;;;;;;;12.88;3.40;;;;;;;;;;5093596;28;20307;-67
2022/02/26 12:58:40;;;;;;;6.40;2.60;;;;;;;;;;5096662;28;20203;-66
2022/02/26 13:01:07;;;;;;;10.25;2.80;;;;;;;;;;5097255;28;20656;-69
2022/02/26 13:03:34;;;;;;;7.78;2.42;;;;;;;;;;5097464;28;20200;-66
2022/02/26 13:06:05;;;;;;;17.33;3.72;;;;;;;;;;5097489;28;20264;-66
2022/02/26 13:08:33;;;;;;;10.85;2.90;;;;;;;;;;5097845;28;20189;-66
2022/02/26 13:11:02;;;;;;;8.38;2.50;;;;;;;;;;5097795;28;20264;-70
2022/02/26 13:13:29;;;;;;;12.98;3.63;;;;;;;;;;5097466;28;20224;-65
2022/02/26 13:16:01;;;;;;;11.50;2.70;;;;;;;;;;5097411;28;20197;-66
2022/02/26 13:18:30;;;;;;;10.93;2.88;;;;;;;;;;5097050;28;20192;-66
2022/02/26 13:20:57;;;;;;;5.80;2.53;;;;;;;;;;5097862;28;20306;-66
2022/02/26 13:23:25;;;;;;;12.35;2.58;;;;;;;;;;5097203;28;20202;-66
2022/02/26 13:25:55;;;;;;;12.45;4.18;;;;;;;;;;5095805;28;20197;-65
2022/02/26 13:28:25;;;;;;;10.90;2.83;;;;;;;;;;5096319;28;20592;-66
2022/02/26 13:30:54;;;;;;;11.98;3.20;;;;;;;;;;5095860;28;20194;-65
2022/02/26 13:33:21;;;;;;;8.77;2.80;;;;;;;;;;5096372;28;20267;-65
2022/02/26 13:35:49;;;;;;;8.80;2.97;;;;;;;;;;5096209;28;20674;-66
2022/02/26 13:38:18;;;;;;;13.00;5.13;;;;;;;;;;5096255;28;20445;-65
2022/02/26 13:40:45;;;;;;;13.93;3.50;;;;;;;;;;5096947;28;20204;-66
2022/02/26 13:43:12;;;;;;;15.52;2.85;;;;;;;;;;5097348;28;20283;-66
2022/02/26 13:45:41;;;;;;;8.02;3.25;;;;;;;;;;5096615;28;20203;-66
2022/02/26 13:48:15;;;;;;;12.97;3.87;;;;;;;;;;5096633;28;20292;-66
2022/02/26 13:50:42;;;;;;;12.20;3.42;;;;;;;;;;5096949;28;20514;-66
2022/02/26 13:53:09;;;;;;;8.20;3.65;;;;;;;;;;5096725;28;20224;-66
2022/02/26 13:55:36;;;;;;;13.98;3.45;;;;;;;;;;5095487;28;20287;-66
2022/02/26 13:58:04;;;;;;;9.95;3.67;;;;;;;;;;5095570;28;20190;-67
2022/02/26 14:00:31;;;;;;;12.93;2.88;;;;;;;;;;5096296;28;20284;-66
2022/02/26 14:03:02;;;;;;;7.78;2.67;;;;;;;;;;5096395;28;20281;-66
2022/02/26 14:05:30;;;;;;;5.72;3.20;;;;;;;;;;5096612;28;20693;-66
2022/02/26 14:07:57;;;;;;;10.45;2.67;;;;;;;;;;5095761;28;20302;-67
2022/02/26 14:10:25;;;;;;;13.27;3.40;;;;;;;;;;5094874;28;20196;-66
2022/02/26 14:12:53;;;;;;;9.35;2.85;;;;;;;;;;5096268;28;20189;-66
2022/02/26 14:15:23;;;;;;;7.25;2.83;;;;;;;;;;5095452;28;20308;-67
2022/02/26 14:17:54;;;;;;;12.02;3.45;;;;;;;;;;5095313;28;20189;-65
2022/02/26 14:20:26;;;;;;;10.40;2.90;;;;;;;;;;5095719;28;20189;-66
2022/02/26 14:22:53;;;;;;;5.40;2.22;;;;;;;;;;5095597;28;20194;-66
2022/02/26 14:25:21;;;;;;;7.20;3.20;;;;;;;;;;5095578;28;20205;-67
2022/02/26 14:27:49;;;;;;;9.13;3.00;;;;;;;;;;5095789;28;20221;-66
2022/02/26 14:30:18;;;;;;;6.95;3.20;;;;;;;;;;5095657;28;20563;-66
2022/02/26 14:32:46;;;;;;;9.00;2.53;;;;;;;;;;5095319;28;20284;-66
2022/02/26 14:35:14;;;;;;;10.52;3.28;;;;;;;;;;5095715;28;20213;-67
2022/02/26 14:37:43;;;;;;;14.50;3.13;;;;;;;;;;5094892;28;20193;-67
2022/02/26 14:40:11;;;;;;;8.38;2.72;;;;;;;;;;5095173;28;20439;-67